sensor_id;sensor_type;location;lat;lon;timestamp;temperature;humidity
10336;DHT22;5213;53.548;9.930;2023-07-31T00:00:11;14.80;99.90
10336;DHT22;5213;53.548;9.930;2023-07-31T00:02:37;15.00;99.90
10336;DHT22;5213;53.548;9.930;2023-07-31T00:05:02;15.10;99.90
10336;DHT22;5213;53.548;9.930;2023-07-31T00:07:28;15.20;99.90
10336;DHT22;5213;53.548;9.930;2023-07-31T00:09:54;15.30;99.90
10336;DHT22;5213;53.548;9.930;2023-07-31T00:12:20;15.30;99.90
10336;DHT22;5213;53.548;9.930;2023-07-31T00:14:45;15.30;99.90
10336;DHT22;5213;53.548;9.930;2023-07-31T00:17:12;15.30;99.90
10336;DHT22;5213;53.548;9.930;2023-07-31T00:19:37;15.40;99.90
10336;DHT22;5213;53.548;9.930;2023-07-31T00:22:03;15.40;99.90
10336;DHT22;5213;53.548;9.930;2023-07-31T00:24:29;15.40;99.90
10336;DHT22;5213;53.548;9.930;2023-07-31T00:26:54;15.40;99.90
10336;DHT22;5213;53.548;9.930;2023-07-31T00:29:20;15.40;99.90
10336;DHT22;5213;53.548;9.930;2023-07-31T00:31:46;15.40;99.90
10336;DHT22;5213;53.548;9.930;2023-07-31T00:34:11;15.30;99.90
10336;DHT22;5213;53.548;9.930;2023-07-31T00:36:37;15.40;99.90
10336;DHT22;5213;53.548;9.930;2023-07-31T00:39:03;15.40;99.90
10336;DHT22;5213;53.548;9.930;2023-07-31T00:41:34;15.40;99.90
10336;DHT22;5213;53.548;9.930;2023-07-31T00:44:00;15.40;99.90
10336;DHT22;5213;53.548;9.930;2023-07-31T00:46:26;15.40;99.90
10336;DHT22;5213;53.548;9.930;2023-07-31T00:48:51;15.40;99.90
10336;DHT22;5213;53.548;9.930;2023-07-31T00:51:17;15.20;99.90
10336;DHT22;5213;53.548;9.930;2023-07-31T00:53:43;15.20;99.90
10336;DHT22;5213;53.548;9.930;2023-07-31T00:56:09;15.10;99.90
10336;DHT22;5213;53.548;9.930;2023-07-31T00:58:35;15.20;99.90
10336;DHT22;5213;53.548;9.930;2023-07-31T01:01:01;15.10;99.90
10336;DHT22;5213;53.548;9.930;2023-07-31T01:03:26;15.10;99.90
10336;DHT22;5213;53.548;9.930;2023-07-31T01:08:51;15.10;99.90
10336;DHT22;5213;53.548;9.930;2023-07-31T01:11:30;14.90;99.90
10336;DHT22;5213;53.548;9.930;2023-07-31T01:13:57;14.80;99.90
10336;DHT22;5213;53.548;9.930;2023-07-31T01:16:23;14.70;99.90
10336;DHT22;5213;53.548;9.930;2023-07-31T01:18:48;14.70;99.90
10336;DHT22;5213;53.548;9.930;2023-07-31T01:24:19;14.80;99.90
10336;DHT22;5213;53.548;9.930;2023-07-31T01:26:53;14.80;99.90
10336;DHT22;5213;53.548;9.930;2023-07-31T01:29:35;14.90;99.90
10336;DHT22;5213;53.548;9.930;2023-07-31T01:32:04;14.90;99.90
10336;DHT22;5213;53.548;9.930;2023-07-31T01:34:31;15.00;99.90
10336;DHT22;5213;53.548;9.930;2023-07-31T01:36:57;15.10;99.90
10336;DHT22;5213;53.548;9.930;2023-07-31T01:39:26;15.10;99.90
10336;DHT22;5213;53.548;9.930;2023-07-31T01:41:52;15.10;99.90
10336;DHT22;5213;53.548;9.930;2023-07-31T01:44:17;15.10;99.90
10336;DHT22;5213;53.548;9.930;2023-07-31T01:46:43;15.10;99.90
10336;DHT22;5213;53.548;9.930;2023-07-31T01:49:09;15.20;99.90
10336;DHT22;5213;53.548;9.930;2023-07-31T01:51:35;15.20;99.90
10336;DHT22;5213;53.548;9.930;2023-07-31T01:54:01;15.20;99.90
10336;DHT22;5213;53.548;9.930;2023-07-31T01:56:27;15.30;99.90
10336;DHT22;5213;53.548;9.930;2023-07-31T01:58:52;15.30;99.90
10336;DHT22;5213;53.548;9.930;2023-07-31T02:01:18;15.20;99.90
10336;DHT22;5213;53.548;9.930;2023-07-31T02:03:44;15.20;99.90
10336;DHT22;5213;53.548;9.930;2023-07-31T02:06:10;15.20;99.90
10336;DHT22;5213;53.548;9.930;2023-07-31T02:08:35;15.20;99.90
10336;DHT22;5213;53.548;9.930;2023-07-31T02:11:01;15.20;99.90
10336;DHT22;5213;53.548;9.930;2023-07-31T02:13:27;15.30;99.90
10336;DHT22;5213;53.548;9.930;2023-07-31T02:15:52;15.30;99.90
10336;DHT22;5213;53.548;9.930;2023-07-31T02:18:18;15.30;99.90
10336;DHT22;5213;53.548;9.930;2023-07-31T02:20:48;15.30;99.90
10336;DHT22;5213;53.548;9.930;2023-07-31T02:23:14;15.40;99.90
10336;DHT22;5213;53.548;9.930;2023-07-31T02:25:40;15.30;99.90
10336;DHT22;5213;53.548;9.930;2023-07-31T02:28:05;15.30;99.90
10336;DHT22;5213;53.548;9.930;2023-07-31T02:30:31;15.30;99.90
10336;DHT22;5213;53.548;9.930;2023-07-31T02:32:57;15.30;99.90
10336;DHT22;5213;53.548;9.930;2023-07-31T02:35:22;15.20;99.90
10336;DHT22;5213;53.548;9.930;2023-07-31T02:37:48;15.20;99.90
10336;DHT22;5213;53.548;9.930;2023-07-31T02:40:14;15.20;99.90
10336;DHT22;5213;53.548;9.930;2023-07-31T02:42:39;15.20;99.90
10336;DHT22;5213;53.548;9.930;2023-07-31T02:45:06;15.10;99.90
10336;DHT22;5213;53.548;9.930;2023-07-31T02:47:31;15.20;99.90
10336;DHT22;5213;53.548;9.930;2023-07-31T02:49:57;15.10;99.90
10336;DHT22;5213;53.548;9.930;2023-07-31T02:52:23;15.20;99.90
10336;DHT22;5213;53.548;9.930;2023-07-31T02:54:48;15.20;99.90
10336;DHT22;5213;53.548;9.930;2023-07-31T02:57:14;15.20;99.90
10336;DHT22;5213;53.548;9.930;2023-07-31T02:59:41;15.10;96.50
10336;DHT22;5213;53.548;9.930;2023-07-31T03:02:06;15.10;99.90
10336;DHT22;5213;53.548;9.930;2023-07-31T03:04:32;15.00;90.90
10336;DHT22;5213;53.548;9.930;2023-07-31T03:06:58;15.10;84.80
10336;DHT22;5213;53.548;9.930;2023-07-31T03:09:24;15.00;91.60
10336;DHT22;5213;53.548;9.930;2023-07-31T03:11:49;15.00;56.40
10336;DHT22;5213;53.548;9.930;2023-07-31T03:14:15;15.00;41.10
10336;DHT22;5213;53.548;9.930;2023-07-31T03:16:41;15.00;65.70
10336;DHT22;5213;53.548;9.930;2023-07-31T03:19:06;15.00;33.90
10336;DHT22;5213;53.548;9.930;2023-07-31T03:21:32;15.00;43.90
10336;DHT22;5213;53.548;9.930;2023-07-31T03:23:57;15.00;30.60
10336;DHT22;5213;53.548;9.930;2023-07-31T03:26:23;15.00;83.40
10336;DHT22;5213;53.548;9.930;2023-07-31T03:28:49;15.10;97.40
10336;DHT22;5213;53.548;9.930;2023-07-31T03:31:15;15.30;97.70
10336;DHT22;5213;53.548;9.930;2023-07-31T03:33:40;15.20;99.90
10336;DHT22;5213;53.548;9.930;2023-07-31T03:36:06;15.20;99.90
10336;DHT22;5213;53.548;9.930;2023-07-31T03:38:31;15.30;99.90
10336;DHT22;5213;53.548;9.930;2023-07-31T03:40:57;15.30;99.90
10336;DHT22;5213;53.548;9.930;2023-07-31T03:43:24;15.40;99.90
10336;DHT22;5213;53.548;9.930;2023-07-31T03:45:50;15.40;99.90
10336;DHT22;5213;53.548;9.930;2023-07-31T03:48:16;15.40;99.90
10336;DHT22;5213;53.548;9.930;2023-07-31T03:50:42;15.40;99.90
10336;DHT22;5213;53.548;9.930;2023-07-31T03:53:08;15.40;99.90
10336;DHT22;5213;53.548;9.930;2023-07-31T03:55:33;15.40;99.90
10336;DHT22;5213;53.548;9.930;2023-07-31T03:57:59;15.40;99.90
10336;DHT22;5213;53.548;9.930;2023-07-31T04:00:26;15.40;99.90
10336;DHT22;5213;53.548;9.930;2023-07-31T04:02:52;15.40;99.90
10336;DHT22;5213;53.548;9.930;2023-07-31T04:05:18;15.40;99.90
10336;DHT22;5213;53.548;9.930;2023-07-31T04:07:44;15.40;99.90
10336;DHT22;5213;53.548;9.930;2023-07-31T04:10:10;15.40;99.90
10336;DHT22;5213;53.548;9.930;2023-07-31T04:12:35;15.40;99.90
10336;DHT22;5213;53.548;9.930;2023-07-31T04:15:01;15.40;99.90
10336;DHT22;5213;53.548;9.930;2023-07-31T04:17:26;15.40;99.90
10336;DHT22;5213;53.548;9.930;2023-07-31T04:19:52;15.40;99.90
10336;DHT22;5213;53.548;9.930;2023-07-31T04:22:18;15.40;99.90
10336;DHT22;5213;53.548;9.930;2023-07-31T04:24:43;15.40;99.90
10336;DHT22;5213;53.548;9.930;2023-07-31T04:27:09;15.30;99.90
10336;DHT22;5213;53.548;9.930;2023-07-31T04:29:35;15.40;99.90
10336;DHT22;5213;53.548;9.930;2023-07-31T04:32:04;15.40;99.90
10336;DHT22;5213;53.548;9.930;2023-07-31T04:34:29;15.30;99.90
10336;DHT22;5213;53.548;9.930;2023-07-31T04:36:55;15.30;99.90
10336;DHT22;5213;53.548;9.930;2023-07-31T04:39:20;15.30;79.90
10336;DHT22;5213;53.548;9.930;2023-07-31T04:41:46;15.30;61.60
10336;DHT22;5213;53.548;9.930;2023-07-31T04:44:12;15.30;62.50
10336;DHT22;5213;53.548;9.930;2023-07-31T04:46:37;15.30;59.30
10336;DHT22;5213;53.548;9.930;2023-07-31T04:49:03;15.20;26.70
10336;DHT22;5213;53.548;9.930;2023-07-31T04:51:29;15.20;7.70
10336;DHT22;5213;53.548;9.930;2023-07-31T04:53:55;15.20;17.40
10336;DHT22;5213;53.548;9.930;2023-07-31T04:56:21;15.20;25.10
10336;DHT22;5213;53.548;9.930;2023-07-31T04:58:46;15.20;5.60
10336;DHT22;5213;53.548;9.930;2023-07-31T05:01:12;15.30;1.00
10336;DHT22;5213;53.548;9.930;2023-07-31T05:03:38;15.30;1.00
10336;DHT22;5213;53.548;9.930;2023-07-31T05:06:03;15.20;13.10
10336;DHT22;5213;53.548;9.930;2023-07-31T05:08:29;15.20;27.20
10336;DHT22;5213;53.548;9.930;2023-07-31T05:10:55;15.30;14.00
10336;DHT22;5213;53.548;9.930;2023-07-31T05:13:20;15.30;1.00
10336;DHT22;5213;53.548;9.930;2023-07-31T05:15:46;15.20;1.00
10336;DHT22;5213;53.548;9.930;2023-07-31T05:18:14;15.20;1.00
10336;DHT22;5213;53.548;9.930;2023-07-31T05:20:40;15.20;1.00
10336;DHT22;5213;53.548;9.930;2023-07-31T05:23:06;15.20;1.00
10336;DHT22;5213;53.548;9.930;2023-07-31T05:25:32;15.20;1.00
10336;DHT22;5213;53.548;9.930;2023-07-31T05:27:57;15.20;10.80
10336;DHT22;5213;53.548;9.930;2023-07-31T05:30:23;15.10;1.00
10336;DHT22;5213;53.548;9.930;2023-07-31T05:32:49;15.20;1.00
10336;DHT22;5213;53.548;9.930;2023-07-31T05:35:14;15.20;1.00
10336;DHT22;5213;53.548;9.930;2023-07-31T05:37:40;15.20;1.00
10336;DHT22;5213;53.548;9.930;2023-07-31T05:40:07;15.30;1.00
10336;DHT22;5213;53.548;9.930;2023-07-31T05:42:33;15.20;1.00
10336;DHT22;5213;53.548;9.930;2023-07-31T05:45:00;15.20;1.00
10336;DHT22;5213;53.548;9.930;2023-07-31T05:47:25;15.20;1.00
10336;DHT22;5213;53.548;9.930;2023-07-31T05:49:51;15.30;1.00
10336;DHT22;5213;53.548;9.930;2023-07-31T05:52:18;15.30;1.00
10336;DHT22;5213;53.548;9.930;2023-07-31T05:54:44;15.40;1.00
10336;DHT22;5213;53.548;9.930;2023-07-31T05:57:11;15.40;42.50
10336;DHT22;5213;53.548;9.930;2023-07-31T05:59:37;15.50;74.60
10336;DHT22;5213;53.548;9.930;2023-07-31T06:02:02;15.60;99.90
10336;DHT22;5213;53.548;9.930;2023-07-31T06:04:28;15.70;99.90
10336;DHT22;5213;53.548;9.930;2023-07-31T06:06:54;15.70;99.90
10336;DHT22;5213;53.548;9.930;2023-07-31T06:09:19;15.90;99.90
10336;DHT22;5213;53.548;9.930;2023-07-31T06:11:46;15.90;99.90
10336;DHT22;5213;53.548;9.930;2023-07-31T06:14:11;15.80;99.90
10336;DHT22;5213;53.548;9.930;2023-07-31T06:16:37;15.80;99.90
10336;DHT22;5213;53.548;9.930;2023-07-31T06:19:03;15.90;99.90
10336;DHT22;5213;53.548;9.930;2023-07-31T06:21:29;15.90;99.90
10336;DHT22;5213;53.548;9.930;2023-07-31T06:23:55;15.80;99.90
10336;DHT22;5213;53.548;9.930;2023-07-31T06:26:21;15.90;99.90
10336;DHT22;5213;53.548;9.930;2023-07-31T06:28:46;15.80;99.90
10336;DHT22;5213;53.548;9.930;2023-07-31T06:31:12;15.80;99.90
10336;DHT22;5213;53.548;9.930;2023-07-31T06:33:37;15.90;99.90
10336;DHT22;5213;53.548;9.930;2023-07-31T06:36:03;16.00;99.90
10336;DHT22;5213;53.548;9.930;2023-07-31T06:38:29;15.90;99.90
10336;DHT22;5213;53.548;9.930;2023-07-31T06:40:54;15.80;99.90
10336;DHT22;5213;53.548;9.930;2023-07-31T06:43:21;15.80;99.90
10336;DHT22;5213;53.548;9.930;2023-07-31T06:45:46;15.80;99.90
10336;DHT22;5213;53.548;9.930;2023-07-31T06:48:14;15.80;99.90
10336;DHT22;5213;53.548;9.930;2023-07-31T06:50:39;15.80;99.90
10336;DHT22;5213;53.548;9.930;2023-07-31T06:53:05;15.80;99.90
10336;DHT22;5213;53.548;9.930;2023-07-31T06:55:31;15.80;99.90
10336;DHT22;5213;53.548;9.930;2023-07-31T06:57:56;15.80;99.90
10336;DHT22;5213;53.548;9.930;2023-07-31T07:00:22;15.80;99.90
10336;DHT22;5213;53.548;9.930;2023-07-31T07:02:49;15.80;99.90
10336;DHT22;5213;53.548;9.930;2023-07-31T07:05:16;15.80;99.90
10336;DHT22;5213;53.548;9.930;2023-07-31T07:07:42;15.80;99.90
10336;DHT22;5213;53.548;9.930;2023-07-31T07:10:08;15.80;99.90
10336;DHT22;5213;53.548;9.930;2023-07-31T07:12:34;15.80;56.80
10336;DHT22;5213;53.548;9.930;2023-07-31T07:15:01;15.80;37.10
10336;DHT22;5213;53.548;9.930;2023-07-31T07:17:28;15.80;29.20
10336;DHT22;5213;53.548;9.930;2023-07-31T07:19:57;15.80;1.00
10336;DHT22;5213;53.548;9.930;2023-07-31T07:22:23;16.00;1.00
10336;DHT22;5213;53.548;9.930;2023-07-31T07:24:49;15.90;1.00
10336;DHT22;5213;53.548;9.930;2023-07-31T07:27:15;15.90;1.00
10336;DHT22;5213;53.548;9.930;2023-07-31T07:29:40;15.90;1.00
10336;DHT22;5213;53.548;9.930;2023-07-31T07:32:06;16.00;17.90
10336;DHT22;5213;53.548;9.930;2023-07-31T07:34:32;16.10;90.10
10336;DHT22;5213;53.548;9.930;2023-07-31T07:36:58;16.20;99.90
10336;DHT22;5213;53.548;9.930;2023-07-31T07:39:23;16.30;99.90
10336;DHT22;5213;53.548;9.930;2023-07-31T07:41:50;16.40;99.90
10336;DHT22;5213;53.548;9.930;2023-07-31T07:44:16;16.40;99.90
10336;DHT22;5213;53.548;9.930;2023-07-31T07:46:43;16.30;99.90
10336;DHT22;5213;53.548;9.930;2023-07-31T07:49:08;16.30;99.90
10336;DHT22;5213;53.548;9.930;2023-07-31T07:51:34;16.40;99.90
10336;DHT22;5213;53.548;9.930;2023-07-31T07:54:00;16.50;99.90
10336;DHT22;5213;53.548;9.930;2023-07-31T07:56:26;16.60;99.90
10336;DHT22;5213;53.548;9.930;2023-07-31T07:58:52;16.70;99.90
10336;DHT22;5213;53.548;9.930;2023-07-31T08:01:18;16.90;99.90
10336;DHT22;5213;53.548;9.930;2023-07-31T08:03:44;17.20;99.90
10336;DHT22;5213;53.548;9.930;2023-07-31T08:06:10;17.40;99.90
10336;DHT22;5213;53.548;9.930;2023-07-31T08:08:36;17.50;99.90
10336;DHT22;5213;53.548;9.930;2023-07-31T08:11:02;17.60;99.90
10336;DHT22;5213;53.548;9.930;2023-07-31T08:13:28;17.80;99.90
10336;DHT22;5213;53.548;9.930;2023-07-31T08:15:54;18.00;99.90
10336;DHT22;5213;53.548;9.930;2023-07-31T08:18:20;18.10;99.90
10336;DHT22;5213;53.548;9.930;2023-07-31T08:20:45;18.00;99.90
10336;DHT22;5213;53.548;9.930;2023-07-31T08:23:11;17.90;99.90
10336;DHT22;5213;53.548;9.930;2023-07-31T08:25:37;17.90;99.90
10336;DHT22;5213;53.548;9.930;2023-07-31T08:28:04;18.20;99.90
10336;DHT22;5213;53.548;9.930;2023-07-31T08:30:30;18.50;99.90
10336;DHT22;5213;53.548;9.930;2023-07-31T08:32:56;18.80;99.90
10336;DHT22;5213;53.548;9.930;2023-07-31T08:35:25;18.80;99.90
10336;DHT22;5213;53.548;9.930;2023-07-31T08:37:51;18.80;99.90
10336;DHT22;5213;53.548;9.930;2023-07-31T08:40:17;19.00;99.90
10336;DHT22;5213;53.548;9.930;2023-07-31T08:42:51;19.00;99.90
10336;DHT22;5213;53.548;9.930;2023-07-31T08:45:18;18.90;99.90
10336;DHT22;5213;53.548;9.930;2023-07-31T08:47:46;19.00;90.70
10336;DHT22;5213;53.548;9.930;2023-07-31T08:50:13;19.00;82.60
10336;DHT22;5213;53.548;9.930;2023-07-31T08:52:39;18.90;55.00
10336;DHT22;5213;53.548;9.930;2023-07-31T08:55:05;19.00;50.70
10336;DHT22;5213;53.548;9.930;2023-07-31T08:57:32;19.10;58.00
10336;DHT22;5213;53.548;9.930;2023-07-31T08:59:59;19.10;14.30
10336;DHT22;5213;53.548;9.930;2023-07-31T09:02:34;19.10;17.80
10336;DHT22;5213;53.548;9.930;2023-07-31T09:05:03;18.80;8.70
10336;DHT22;5213;53.548;9.930;2023-07-31T09:07:31;18.70;1.00
10336;DHT22;5213;53.548;9.930;2023-07-31T09:09:59;18.50;13.70
10336;DHT22;5213;53.548;9.930;2023-07-31T09:12:25;18.30;14.60
10336;DHT22;5213;53.548;9.930;2023-07-31T09:14:51;18.30;6.60
10336;DHT22;5213;53.548;9.930;2023-07-31T09:17:34;18.30;16.10
10336;DHT22;5213;53.548;9.930;2023-07-31T09:20:20;18.40;31.10
10336;DHT22;5213;53.548;9.930;2023-07-31T09:22:48;18.50;25.30
10336;DHT22;5213;53.548;9.930;2023-07-31T09:25:21;18.70;8.50
10336;DHT22;5213;53.548;9.930;2023-07-31T09:28:01;18.70;1.00
10336;DHT22;5213;53.548;9.930;2023-07-31T09:30:27;18.70;1.00
10336;DHT22;5213;53.548;9.930;2023-07-31T09:33:02;18.80;1.00
10336;DHT22;5213;53.548;9.930;2023-07-31T09:35:32;19.00;1.00
10336;DHT22;5213;53.548;9.930;2023-07-31T09:38:05;19.00;1.00
10336;DHT22;5213;53.548;9.930;2023-07-31T09:40:33;19.10;1.00
10336;DHT22;5213;53.548;9.930;2023-07-31T09:43:01;19.30;1.00
10336;DHT22;5213;53.548;9.930;2023-07-31T09:45:27;19.40;1.00
10336;DHT22;5213;53.548;9.930;2023-07-31T09:47:53;19.50;1.00
10336;DHT22;5213;53.548;9.930;2023-07-31T09:50:24;19.60;1.00
10336;DHT22;5213;53.548;9.930;2023-07-31T09:52:50;19.90;1.00
10336;DHT22;5213;53.548;9.930;2023-07-31T09:55:17;19.80;1.00
10336;DHT22;5213;53.548;9.930;2023-07-31T09:57:46;19.80;1.00
10336;DHT22;5213;53.548;9.930;2023-07-31T10:00:13;19.80;1.00
10336;DHT22;5213;53.548;9.930;2023-07-31T10:02:39;19.70;1.00
10336;DHT22;5213;53.548;9.930;2023-07-31T10:05:07;19.70;1.00
10336;DHT22;5213;53.548;9.930;2023-07-31T10:07:39;19.30;1.00
10336;DHT22;5213;53.548;9.930;2023-07-31T10:10:07;19.50;1.00
10336;DHT22;5213;53.548;9.930;2023-07-31T10:12:34;19.70;1.00
10336;DHT22;5213;53.548;9.930;2023-07-31T10:15:00;19.90;1.00
10336;DHT22;5213;53.548;9.930;2023-07-31T10:17:26;19.40;1.00
10336;DHT22;5213;53.548;9.930;2023-07-31T10:19:53;19.40;1.00
10336;DHT22;5213;53.548;9.930;2023-07-31T10:22:22;18.80;1.00
10336;DHT22;5213;53.548;9.930;2023-07-31T10:24:50;18.70;1.00
10336;DHT22;5213;53.548;9.930;2023-07-31T10:27:15;18.40;1.00
10336;DHT22;5213;53.548;9.930;2023-07-31T10:29:43;18.40;1.00
10336;DHT22;5213;53.548;9.930;2023-07-31T10:32:13;18.70;1.00
10336;DHT22;5213;53.548;9.930;2023-07-31T10:34:40;18.50;1.00
10336;DHT22;5213;53.548;9.930;2023-07-31T10:37:27;18.50;1.00
10336;DHT22;5213;53.548;9.930;2023-07-31T10:45:10;18.00;1.00
10336;DHT22;5213;53.548;9.930;2023-07-31T10:47:43;17.70;1.00
10336;DHT22;5213;53.548;9.930;2023-07-31T10:50:17;17.70;1.00
10336;DHT22;5213;53.548;9.930;2023-07-31T10:52:56;17.50;1.00
10336;DHT22;5213;53.548;9.930;2023-07-31T10:55:27;17.60;1.00
10336;DHT22;5213;53.548;9.930;2023-07-31T10:57:55;17.50;1.00
10336;DHT22;5213;53.548;9.930;2023-07-31T11:00:28;17.40;1.00
10336;DHT22;5213;53.548;9.930;2023-07-31T11:02:58;17.50;1.00
10336;DHT22;5213;53.548;9.930;2023-07-31T11:08:35;17.60;1.00
10336;DHT22;5213;53.548;9.930;2023-07-31T11:13:27;18.00;1.00
10336;DHT22;5213;53.548;9.930;2023-07-31T11:15:52;18.20;1.00
10336;DHT22;5213;53.548;9.930;2023-07-31T11:18:18;18.20;1.00
10336;DHT22;5213;53.548;9.930;2023-07-31T11:20:44;18.10;16.30
10336;DHT22;5213;53.548;9.930;2023-07-31T11:23:10;18.10;1.00
10336;DHT22;5213;53.548;9.930;2023-07-31T11:25:38;18.10;1.00
10336;DHT22;5213;53.548;9.930;2023-07-31T11:28:14;18.10;1.00
10336;DHT22;5213;53.548;9.930;2023-07-31T11:30:41;18.10;4.20
10336;DHT22;5213;53.548;9.930;2023-07-31T11:33:08;17.90;1.00
10336;DHT22;5213;53.548;9.930;2023-07-31T11:35:36;17.80;1.00
10336;DHT22;5213;53.548;9.930;2023-07-31T11:38:07;17.80;1.00
10336;DHT22;5213;53.548;9.930;2023-07-31T11:40:41;17.50;1.00
10336;DHT22;5213;53.548;9.930;2023-07-31T11:43:07;17.60;1.00
10336;DHT22;5213;53.548;9.930;2023-07-31T11:45:33;17.60;1.00
10336;DHT22;5213;53.548;9.930;2023-07-31T11:48:01;17.50;1.00
10336;DHT22;5213;53.548;9.930;2023-07-31T11:50:27;17.50;1.00
10336;DHT22;5213;53.548;9.930;2023-07-31T11:53:01;17.40;1.00
10336;DHT22;5213;53.548;9.930;2023-07-31T11:55:27;16.90;1.00
10336;DHT22;5213;53.548;9.930;2023-07-31T11:57:56;16.80;1.00
10336;DHT22;5213;53.548;9.930;2023-07-31T12:00:23;16.70;1.00
10336;DHT22;5213;53.548;9.930;2023-07-31T12:02:50;16.70;1.00
10336;DHT22;5213;53.548;9.930;2023-07-31T12:05:16;16.70;1.00
10336;DHT22;5213;53.548;9.930;2023-07-31T12:07:46;16.70;1.00
10336;DHT22;5213;53.548;9.930;2023-07-31T12:10:29;16.70;1.00
10336;DHT22;5213;53.548;9.930;2023-07-31T12:15:32;16.40;1.00
10336;DHT22;5213;53.548;9.930;2023-07-31T12:17:58;16.50;1.00
10336;DHT22;5213;53.548;9.930;2023-07-31T12:20:24;16.40;1.00
10336;DHT22;5213;53.548;9.930;2023-07-31T12:22:49;16.40;1.00
10336;DHT22;5213;53.548;9.930;2023-07-31T12:25:15;16.40;1.00
10336;DHT22;5213;53.548;9.930;2023-07-31T12:27:44;16.40;1.00
10336;DHT22;5213;53.548;9.930;2023-07-31T12:30:31;16.20;1.00
10336;DHT22;5213;53.548;9.930;2023-07-31T12:33:06;16.10;1.00
10336;DHT22;5213;53.548;9.930;2023-07-31T12:35:40;16.00;1.00
10336;DHT22;5213;53.548;9.930;2023-07-31T12:38:06;15.90;27.70
10336;DHT22;5213;53.548;9.930;2023-07-31T12:40:32;16.10;99.90
10336;DHT22;5213;53.548;9.930;2023-07-31T12:43:00;16.10;99.90
10336;DHT22;5213;53.548;9.930;2023-07-31T12:45:27;16.30;99.90
10336;DHT22;5213;53.548;9.930;2023-07-31T12:47:52;16.40;99.90
10336;DHT22;5213;53.548;9.930;2023-07-31T12:50:18;16.40;99.90
10336;DHT22;5213;53.548;9.930;2023-07-31T12:52:44;16.50;99.90
10336;DHT22;5213;53.548;9.930;2023-07-31T12:55:09;16.30;99.90
10336;DHT22;5213;53.548;9.930;2023-07-31T12:57:36;16.30;1.00
10336;DHT22;5213;53.548;9.930;2023-07-31T13:00:03;16.40;1.00
10336;DHT22;5213;53.548;9.930;2023-07-31T13:02:29;16.50;1.00
10336;DHT22;5213;53.548;9.930;2023-07-31T13:04:54;16.50;1.00
10336;DHT22;5213;53.548;9.930;2023-07-31T13:07:22;16.40;1.00
10336;DHT22;5213;53.548;9.930;2023-07-31T13:09:48;16.20;99.90
10336;DHT22;5213;53.548;9.930;2023-07-31T13:12:14;16.20;99.90
10336;DHT22;5213;53.548;9.930;2023-07-31T13:14:39;16.20;1.00
10336;DHT22;5213;53.548;9.930;2023-07-31T13:17:05;16.20;1.00
10336;DHT22;5213;53.548;9.930;2023-07-31T13:19:31;16.30;1.00
10336;DHT22;5213;53.548;9.930;2023-07-31T13:21:57;16.40;1.00
10336;DHT22;5213;53.548;9.930;2023-07-31T13:24:22;16.30;1.00
10336;DHT22;5213;53.548;9.930;2023-07-31T13:26:48;16.50;1.00
10336;DHT22;5213;53.548;9.930;2023-07-31T13:29:14;16.80;1.00
10336;DHT22;5213;53.548;9.930;2023-07-31T13:31:39;16.90;1.00
10336;DHT22;5213;53.548;9.930;2023-07-31T13:34:05;17.10;1.00
10336;DHT22;5213;53.548;9.930;2023-07-31T13:36:31;17.20;1.00
10336;DHT22;5213;53.548;9.930;2023-07-31T13:38:56;17.30;1.00
10336;DHT22;5213;53.548;9.930;2023-07-31T13:41:22;17.50;1.00
10336;DHT22;5213;53.548;9.930;2023-07-31T13:43:48;17.70;1.00
10336;DHT22;5213;53.548;9.930;2023-07-31T13:46:13;17.80;1.00
10336;DHT22;5213;53.548;9.930;2023-07-31T13:48:39;17.90;1.00
10336;DHT22;5213;53.548;9.930;2023-07-31T13:51:05;17.90;1.00
10336;DHT22;5213;53.548;9.930;2023-07-31T13:53:31;17.90;1.00
10336;DHT22;5213;53.548;9.930;2023-07-31T13:55:56;17.80;1.00
10336;DHT22;5213;53.548;9.930;2023-07-31T13:58:22;17.70;1.00
10336;DHT22;5213;53.548;9.930;2023-07-31T14:00:48;17.70;1.00
10336;DHT22;5213;53.548;9.930;2023-07-31T14:03:14;17.70;1.00
10336;DHT22;5213;53.548;9.930;2023-07-31T14:05:39;17.80;1.00
10336;DHT22;5213;53.548;9.930;2023-07-31T14:08:05;18.00;1.00
10336;DHT22;5213;53.548;9.930;2023-07-31T14:10:31;18.10;1.00
10336;DHT22;5213;53.548;9.930;2023-07-31T14:12:56;18.20;1.00
10336;DHT22;5213;53.548;9.930;2023-07-31T14:15:22;18.10;1.00
10336;DHT22;5213;53.548;9.930;2023-07-31T14:17:48;18.20;1.00
10336;DHT22;5213;53.548;9.930;2023-07-31T14:20:14;18.10;1.00
10336;DHT22;5213;53.548;9.930;2023-07-31T14:22:39;18.00;1.00
10336;DHT22;5213;53.548;9.930;2023-07-31T14:25:05;17.90;1.00
10336;DHT22;5213;53.548;9.930;2023-07-31T14:27:31;17.80;1.00
10336;DHT22;5213;53.548;9.930;2023-07-31T14:29:56;17.70;1.00
10336;DHT22;5213;53.548;9.930;2023-07-31T14:32:22;17.70;1.00
10336;DHT22;5213;53.548;9.930;2023-07-31T14:34:51;17.70;1.00
10336;DHT22;5213;53.548;9.930;2023-07-31T14:37:16;17.70;1.00
10336;DHT22;5213;53.548;9.930;2023-07-31T14:39:42;17.70;1.00
10336;DHT22;5213;53.548;9.930;2023-07-31T14:42:09;17.70;1.00
10336;DHT22;5213;53.548;9.930;2023-07-31T14:44:34;17.70;1.00
10336;DHT22;5213;53.548;9.930;2023-07-31T14:47:00;17.70;1.00
10336;DHT22;5213;53.548;9.930;2023-07-31T14:49:26;17.70;86.70
10336;DHT22;5213;53.548;9.930;2023-07-31T14:51:53;17.60;99.90
10336;DHT22;5213;53.548;9.930;2023-07-31T14:54:19;17.60;1.00
10336;DHT22;5213;53.548;9.930;2023-07-31T14:56:45;17.50;99.90
10336;DHT22;5213;53.548;9.930;2023-07-31T14:59:10;17.50;1.00
10336;DHT22;5213;53.548;9.930;2023-07-31T15:01:37;17.50;1.00
10336;DHT22;5213;53.548;9.930;2023-07-31T15:04:02;17.50;1.00
10336;DHT22;5213;53.548;9.930;2023-07-31T15:06:28;17.60;1.00
10336;DHT22;5213;53.548;9.930;2023-07-31T15:08:54;17.60;1.00
10336;DHT22;5213;53.548;9.930;2023-07-31T15:11:19;17.70;1.00
10336;DHT22;5213;53.548;9.930;2023-07-31T15:13:45;17.70;1.00
10336;DHT22;5213;53.548;9.930;2023-07-31T15:16:10;17.70;1.00
10336;DHT22;5213;53.548;9.930;2023-07-31T15:18:36;17.70;99.90
10336;DHT22;5213;53.548;9.930;2023-07-31T15:21:01;17.80;1.00
10336;DHT22;5213;53.548;9.930;2023-07-31T15:23:27;17.80;1.00
10336;DHT22;5213;53.548;9.930;2023-07-31T15:25:52;17.80;1.00
10336;DHT22;5213;53.548;9.930;2023-07-31T15:28:18;17.90;1.00
10336;DHT22;5213;53.548;9.930;2023-07-31T15:30:44;17.90;99.90
10336;DHT22;5213;53.548;9.930;2023-07-31T15:33:10;18.00;99.90
10336;DHT22;5213;53.548;9.930;2023-07-31T15:35:36;17.90;99.90
10336;DHT22;5213;53.548;9.930;2023-07-31T15:38:01;17.90;99.90
10336;DHT22;5213;53.548;9.930;2023-07-31T15:40:27;17.90;99.90
10336;DHT22;5213;53.548;9.930;2023-07-31T15:42:52;17.80;99.90
10336;DHT22;5213;53.548;9.930;2023-07-31T15:45:18;17.80;99.90
10336;DHT22;5213;53.548;9.930;2023-07-31T15:47:44;17.80;99.90
10336;DHT22;5213;53.548;9.930;2023-07-31T15:50:09;17.60;99.90
10336;DHT22;5213;53.548;9.930;2023-07-31T15:52:35;17.60;99.90
10336;DHT22;5213;53.548;9.930;2023-07-31T15:55:01;17.60;99.90
10336;DHT22;5213;53.548;9.930;2023-07-31T15:57:26;17.60;99.90
10336;DHT22;5213;53.548;9.930;2023-07-31T15:59:52;17.50;99.90
10336;DHT22;5213;53.548;9.930;2023-07-31T16:02:17;17.50;1.00
10336;DHT22;5213;53.548;9.930;2023-07-31T16:04:43;17.50;99.90
10336;DHT22;5213;53.548;9.930;2023-07-31T16:07:09;17.50;1.00